Latest Weather Observations for Canterbury

IDN60901

Issued at 2:31 pm EDT Friday 19 January 2018 (issued every 10 minutes, with the page automatically refreshed every 10 minutes)

About weather observations | Map of Sydney area stations | Latest observations for Sydney area | Other Formats
Station Details ID: 066194 Name: CANTERBURY RACECOURSE AWS Lat: -33.91 Lon: 151.11 Height: 3.0 m
Data from the previous 72 hours. | See also: Recent months at Canterbury
Date/Time
EDT
Temp
°C
App
Temp
°C
Dew
Point
°C
Rel
Hum
%
Delta-T
°C
Wind Press
QNH
hPa
Press
MSL
hPa
Rain since
9am
mm
Dir  Spd
km/h
Gust
km/h
Spd
kts
Gust
kts
19/02:30pm 33.2 30.5 11.7 27 12.7 ENE 17 24 9 13 - - 0.0
19/02:00pm 33.1 30.4 10.4 25 13.1 ENE 15 22 8 12 - - 0.0
19/01:30pm 32.4 30.2 12.1 29 12.0 ENE 15 20 8 11 - - 0.0
19/01:00pm 31.9 29.5 12.7 31 11.4 ENE 17 20 9 11 - - 0.0
19/12:30pm 32.8 31.2 13.9 31 11.5 NE 15 26 8 14 - - 0.0
19/12:00pm 31.4 29.9 9.0 25 12.5 ESE 7 15 4 8 - - 0.0
19/11:30am 30.2 29.7 10.7 30 11.2 ENE 4 11 2 6 - - 0.0
19/11:00am 28.9 28.2 11.5 34 10.0 E 6 11 3 6 - - 0.0
19/10:30am 27.8 27.2 12.2 38 9.0 W 7 11 4 6 - - 0.0
19/10:00am 25.5 24.7 11.7 42 7.9 WNW 7 11 4 6 - - 0.0
19/09:30am 24.3 23.9 12.9 49 6.6 WNW 7 13 4 7 - - 0.0
19/09:00am 22.8 22.5 13.3 55 5.5 WNW 7 11 4 6 - - 0.0
19/08:30am 21.3 20.6 13.2 60 4.6 NW 9 13 5 7 - - 0.0
19/08:00am 19.7 19.6 13.9 69 3.3 WNW 7 11 4 6 - - 0.0
19/07:30am 18.0 17.8 13.7 76 2.4 WNW 7 11 4 6 - - 0.0
19/07:00am 16.0 17.6 14.9 93 0.6 CALM 0 2 0 1 - - 0.0
19/06:30am 14.5 15.6 13.4 93 0.6 CALM 0 0 0 0 - - 0.0
19/06:00am 13.9 14.7 12.6 92 0.7 CALM 0 0 0 0 - - 0.0
19/05:30am 14.2 15.1 12.9 92 0.7 CALM 0 0 0 0 - - 0.0
19/05:00am 14.5 15.5 13.2 92 0.7 CALM 0 0 0 0 - - 0.0
19/04:30am 14.6 15.6 13.1 91 0.8 CALM 0 0 0 0 - - 0.0
19/04:00am 14.5 15.4 13.0 91 0.8 CALM 0 0 0 0 - - 0.0
19/03:30am 14.8 15.8 13.3 91 0.8 CALM 0 0 0 0 - - 0.0
19/03:00am 14.6 15.5 12.8 89 1.0 CALM 0 0 0 0 - - 0.0
19/02:30am 15.2 16.3 13.4 89 1.0 CALM 0 0 0 0 - - 0.0
19/02:00am 15.2 16.2 13.1 87 1.2 CALM 0 0 0 0 - - 0.0
19/01:30am 15.5 16.4 13.0 85 1.4 CALM 0 0 0 0 - - 0.0
19/01:00am 16.4 17.6 13.9 85 1.4 CALM 0 0 0 0 - - 0.0
19/12:30am 16.7 18.0 14.0 84 1.5 CALM 0 0 0 0 - - 0.0
19/12:00am 17.3 18.3 14.2 82 1.8 ENE 2 9 1 5 - - 0.0
 
Date/Time
EDT
Temp
°C
App
Temp
°C
Dew
Point
°C
Rel
Hum
%
Delta-T
°C
Wind Press
QNH
hPa
Press
MSL
hPa
Rain since
9am
mm
Dir  Spd
km/h
Gust
km/h
Spd
kts
Gust
kts
18/11:30pm 16.8 17.8 13.3 80 2.0 CALM 0 0 0 0 - - 0.0
18/11:00pm 17.8 19.0 13.7 77 2.3 CALM 0 0 0 0 - - 0.0
18/10:30pm 18.4 19.6 13.9 75 2.6 CALM 0 0 0 0 - - 0.0
18/10:00pm 19.6 20.6 13.1 66 3.7 CALM 0 4 0 2 - - 0.0
18/09:30pm 20.4 20.2 13.1 63 4.2 NE 6 9 3 5 - - 0.0
18/09:00pm 21.0 20.6 12.9 60 4.6 ENE 7 11 4 6 - - 0.0
18/08:30pm 21.8 20.1 12.4 55 5.3 ENE 13 22 7 12 - - 0.0
18/08:00pm 22.3 20.0 11.7 51 5.9 E 15 20 8 11 - - 0.0
18/07:30pm 23.2 21.2 11.6 48 6.5 E 13 22 7 12 - - 0.0
18/07:00pm 24.0 22.0 12.6 49 6.5 ENE 15 20 8 11 - - 0.0
18/06:30pm 24.8 22.3 12.4 46 7.1 ENE 17 22 9 12 - - 0.0
18/06:00pm 25.1 21.4 10.2 39 8.2 E 20 28 11 15 - - 0.0
18/05:30pm 25.3 20.8 10.0 38 8.4 ENE 24 32 13 17 - - 0.0
18/05:00pm 26.4 22.7 10.1 36 9.1 E 20 28 11 15 - - 0.0
18/04:30pm 27.4 23.4 8.3 30 10.4 E 19 26 10 14 - - 0.0
18/04:00pm 27.6 22.8 9.0 31 10.2 E 24 35 13 19 - - 0.0
18/03:30pm 28.0 24.1 8.8 30 10.5 ENE 19 26 10 14 - - 0.0
18/03:00pm 29.2 25.5 9.3 29 11.1 ENE 19 28 10 15 - - 0.0
18/02:30pm 28.7 25.4 9.4 30 10.7 NE 17 30 9 16 - - 0.0
18/02:00pm 28.8 25.4 9.0 29 10.9 NE 17 22 9 12 - - 0.0
18/01:30pm 29.6 26.3 8.1 26 11.8 E 15 22 8 12 - - 0.0
18/01:00pm 29.2 26.4 3.2 19 13.0 NNW 7 15 4 8 - - 0.0
18/12:30pm 28.1 24.8 2.3 19 12.7 E 9 17 5 9 - - 0.0
18/12:00pm 27.8 25.1 5.4 24 11.6 SSE 9 17 5 9 - - 0.0
18/11:30am 26.2 24.2 6.3 28 10.3 S 6 11 3 6 - - 0.0
18/11:00am 25.1 21.9 3.1 24 10.7 NNW 9 15 5 8 - - 0.0
18/10:30am 24.0 22.7 7.6 35 8.6 SSW 4 9 2 5 - - 0.0
18/10:00am 22.8 21.5 9.2 42 7.3 W 6 13 3 7 - - 0.0
18/09:30am 21.1 19.6 9.0 46 6.4 NW 7 13 4 7 - - 0.0
18/09:00am 19.8 18.4 11.0 57 4.8 NNW 9 13 5 7 - - 0.0
18/08:30am 18.6 17.8 11.2 62 4.0 NNW 6 13 3 7 - - 0.0
18/08:00am 17.2 16.7 12.1 72 2.8 NW 6 7 3 4 - - 0.0
18/07:30am 15.7 14.9 11.7 77 2.2 WNW 7 13 4 7 - - 0.0
18/07:00am 14.2 15.0 12.4 89 1.0 CALM 0 0 0 0 - - 0.0
18/06:30am 12.6 12.9 11.0 90 0.8 CALM 0 0 0 0 - - 0.0
18/06:00am 12.3 12.6 10.9 91 0.7 CALM 0 0 0 0 - - 0.0
18/05:30am 12.8 13.2 11.4 91 0.7 CALM 0 0 0 0 - - 0.0
18/05:00am 12.4 12.7 10.8 90 0.8 CALM 0 0 0 0 - - 0.0
18/04:30am 12.7 13.0 10.9 89 0.9 CALM 0 0 0 0 - - 0.0
18/04:00am 12.8 13.0 10.5 86 1.2 CALM 0 0 0 0 - - 0.0
18/03:30am 13.3 13.5 10.5 83 1.5 CALM 0 0 0 0 - - 0.0
18/03:00am 14.8 15.5 12.3 85 1.4 CALM 0 2 0 1 - - 0.0
18/02:30am 14.6 14.9 12.1 85 1.4 WSW 2 7 1 4 - - 0.0
18/02:00am 14.6 15.0 11.4 81 1.7 CALM 0 0 0 0 - - 0.0
18/01:30am 15.5 15.8 12.3 81 1.7 W 2 7 1 4 - - 0.0
18/01:00am 16.2 16.2 12.4 78 2.1 W 4 7 2 4 - - 0.0
18/12:30am 16.2 15.8 12.4 78 2.1 W 6 9 3 5 - - 0.0
18/12:00am 17.2 16.7 12.5 74 2.6 W 7 9 4 5 - - 0.0
 
Date/Time
EDT
Temp
°C
App
Temp
°C
Dew
Point
°C
Rel
Hum
%
Delta-T
°C
Wind Press
QNH
hPa
Press
MSL
hPa
Rain since
9am
mm
Dir  Spd
km/h
Gust
km/h
Spd
kts
Gust
kts
17/11:30pm 17.9 17.0 12.6 71 2.9 SSE 9 15 5 8 - - 0.0
17/11:00pm 18.0 17.8 13.5 75 2.5 S 7 11 4 6 - - 0.0
17/10:30pm 18.2 18.0 13.1 72 2.9 S 6 9 3 5 - - 0.0
17/10:00pm 18.2 17.9 12.6 70 3.1 S 6 9 3 5 - - 0.0
17/09:30pm 19.0 17.7 13.6 71 3.1 SSE 13 20 7 11 - - 0.0
17/09:00pm 19.3 17.6 13.7 70 3.2 SSE 15 20 8 11 - - 0.0
17/08:30pm 19.3 17.9 13.3 68 3.4 SSE 13 20 7 11 - - 0.0
17/08:00pm 19.7 16.7 12.7 64 3.9 SSE 20 35 11 19 - - 0.0
17/07:30pm 20.4 15.7 11.9 58 4.7 SE 28 39 15 21 - - 0.0
17/07:00pm 21.0 15.9 10.5 51 5.7 SE 28 43 15 23 - - 0.0
17/06:30pm 21.2 16.3 11.2 53 5.5 SSE 28 39 15 21 - - 0.0
17/06:00pm 21.8 17.9 10.9 50 6.0 SSE 22 32 12 17 - - 0.0
17/05:30pm 22.3 17.9 10.5 47 6.5 SE 24 35 13 19 - - 0.0
17/05:00pm 22.7 18.7 10.5 46 6.7 SE 22 28 12 15 - - 0.0
17/04:30pm 23.2 18.9 10.9 46 6.8 SE 24 37 13 20 - - 0.0
17/04:00pm 22.6 17.7 10.1 45 6.8 SE 26 37 14 20 - - 0.0
17/03:30pm 23.0 17.8 10.1 44 7.0 SE 28 41 15 22 - - 0.0
17/03:00pm 23.0 18.0 10.8 46 6.7 SE 28 41 15 22 - - 0.0
17/02:30pm 22.8 17.5 9.9 44 7.0 SE 28 43 15 23 - - 0.0
17/02:00pm 23.0 18.8 9.8 43 7.2 SSE 22 32 12 17 - - 0.0
17/01:30pm 22.9 17.5 8.2 39 7.8 SE 26 44 14 24 - - 0.0
17/01:00pm 22.7 17.6 9.1 42 7.3 SE 26 37 14 20 - - 0.0
17/12:30pm 23.0 18.7 10.8 46 6.7 SSE 24 37 13 20 - - 0.0
17/12:00pm 22.6 18.0 9.7 44 7.0 SSE 24 39 13 21 - - 0.0
17/11:31am 22.0 17.3 9.2 44 6.8 SE 24 46 13 25 - - 0.0
17/11:30am 22.5 18.1 10.3 46 6.7 SE 24 39 13 21 - - 0.0
17/11:00am 22.0 18.2 9.9 46 6.6 S 20 39 11 21 - - 0.0
17/10:30am 21.5 17.5 10.3 49 6.1 SSE 22 37 12 20 - - 0.0
17/10:00am 20.6 16.9 9.5 49 5.9 SSW 19 35 10 19 - - 0.0
17/09:30am 20.8 17.0 9.7 49 5.9 SSW 20 33 11 18 - - 0.0
17/09:00am 20.5 15.9 9.7 50 5.8 S 24 35 13 19 - - 0.0
17/08:30am 19.6 16.4 9.8 53 5.2 SW 17 22 9 12 - - 0.0
17/08:00am 18.4 15.5 9.7 57 4.6 WSW 15 20 8 11 - - 0.0
17/07:30am 17.6 14.7 9.5 59 4.2 WSW 15 20 8 11 - - 0.0
17/07:00am 17.0 14.6 9.9 63 3.7 WSW 13 19 7 10 - - 0.0
17/06:30am 16.6 15.0 10.2 66 3.4 WSW 9 19 5 10 - - 0.0
17/06:00am 16.5 14.6 10.4 67 3.2 WSW 11 17 6 9 - - 0.0
17/05:30am 16.9 15.3 10.3 65 3.5 WSW 9 15 5 8 - - 0.0
17/05:00am 17.3 15.1 10.7 65 3.5 WSW 13 19 7 10 - - 0.0
17/04:30am 17.4 15.6 11.0 66 3.4 WSW 11 15 6 8 - - 0.0
17/04:00am 17.4 15.8 11.4 68 3.3 WSW 11 17 6 9 - - 0.0
17/03:54am 17.3 16.1 11.6 69 3.1 WSW 9 17 5 9 - - 0.0
17/03:40am 17.4 16.0 12.1 71 2.9 SW 11 19 6 10 - - 0.0
17/03:30am 17.8 16.2 11.6 67 3.4 WSW 11 19 6 10 - - 0.0
17/03:00am 17.7 15.6 11.0 65 3.6 WSW 13 20 7 11 - - 0.0
17/02:30am 18.0 16.7 11.1 64 3.7 SW 9 15 5 8 - - 0.0
17/02:00am 18.5 15.5 10.8 61 4.2 SSW 17 24 9 13 - - 0.0
17/01:30am 18.9 16.3 10.7 59 4.4 S 15 28 8 15 - - 0.0
17/01:00am 18.7 15.6 11.5 63 3.9 SSW 19 28 10 15 - - 0.0
17/12:30am 19.1 16.1 10.6 58 4.6 SSW 17 26 9 14 - - 0.0
17/12:00am 19.1 16.1 10.6 58 4.6 S 17 32 9 17 - - 0.0
 
Date/Time
EDT
Temp
°C
App
Temp
°C
Dew
Point
°C
Rel
Hum
%
Delta-T
°C
Wind Press
QNH
hPa
Press
MSL
hPa
Rain since
9am
mm
Dir  Spd
km/h
Gust
km/h
Spd
kts
Gust
kts
16/11:30pm 18.9 16.1 11.2 61 4.2 S 17 24 9 13 - - 0.0
16/11:00pm 18.9 16.4 11.2 61 4.2 S 15 28 8 15 - - 0.0
16/10:30pm 18.7 16.1 10.8 60 4.3 S 15 24 8 13 - - 0.0
16/10:00pm 18.9 15.9 10.7 59 4.4 S 17 28 9 15 - - 0.0
16/09:30pm 19.3 16.1 11.1 59 4.5 S 19 28 10 15 - - 0.0
16/09:00pm 19.1 16.3 11.4 61 4.2 S 17 35 9 19 - - 0.0
16/08:30pm 19.4 16.0 11.4 60 4.4 SSE 20 32 11 17 - - 0.0
16/08:00pm 19.4 15.6 11.2 59 4.5 SSE 22 33 12 18 - - 0.0
16/07:30pm 19.8 15.1 10.5 55 5.0 SSE 26 39 14 21 - - 0.0
16/07:00pm 20.3 15.9 10.4 53 5.4 SSE 24 35 13 19 - - 0.0
16/06:30pm 20.9 17.0 10.7 52 5.6 SSE 22 35 12 19 - - 0.0
16/06:00pm 21.2 16.1 10.7 51 5.7 SSE 28 39 15 21 - - 0.0
16/05:43pm 21.6 16.5 10.7 50 6.0 SSE 28 48 15 26 - - 0.0
16/05:30pm 21.8 17.3 10.0 47 6.4 S 24 41 13 22 - - 0.0
16/05:03pm 21.8 16.3 9.0 44 6.8 S 28 46 15 25 - - 0.0
16/05:00pm 21.6 16.5 9.2 45 6.6 S 26 43 14 23 - - 0.0
16/04:43pm 21.7 15.5 9.3 45 6.6 S 32 57 17 31 - - 0.0
16/04:30pm 21.0 15.0 8.6 45 6.5 S 30 44 16 24 - - 0.0
16/04:08pm 21.7 15.9 9.3 45 6.6 S 30 48 16 26 - - 0.0
16/04:00pm 22.2 15.8 8.7 42 7.2 S 32 46 17 25 - - 0.0
16/03:30pm 22.1 16.5 8.6 42 7.1 S 28 48 15 26 - - 0.0
16/03:00pm 21.7 15.7 8.6 43 6.9 S 30 52 16 28 - - 0.0

Latest Capital City Observations: Canberra | Sydney | Melbourne | Brisbane | Adelaide | Perth | Hobart | Darwin

Other Formats:

Comma delimited format used in spreadsheet applications
http://www.bom.gov.au/fwo/IDN60901/IDN60901.94766.axf

JavaScript Object Notation format (JSON) in row-major order
http://www.bom.gov.au/fwo/IDN60901/IDN60901.94766.json